Time;durP1;ratioP1;P1;durP2;ratioP2;P2;SDS_P1;SDS_P2;PMS_P1;PMS_P2;Temp;Humidity;BMP_temperature;BMP_pressure;BME280_temperature;BME280_humidity;BME280_pressure;Samples;Min_cycle;Max_cycle;Signal;HPM_P1;HPM_P2
2021/07/08 00:01:30;;;;;;;2.65;0.68;;;24.30;99.90;;;23.83;68.57;100615.13;4988521;28;20039;-52
2021/07/08 00:03:56;;;;;;;1.60;0.55;;;24.30;99.90;;;23.82;68.67;100614.31;4987624;28;20126;-55
2021/07/08 00:06:22;;;;;;;1.48;0.50;;;24.30;99.90;;;23.85;68.51;100614.91;4988127;28;20125;-53
2021/07/08 00:08:48;;;;;;;4.72;0.73;;;24.30;99.90;;;23.94;67.41;100613.53;4986742;28;20053;-52
2021/07/08 00:11:14;;;;;;;1.60;0.45;;;24.30;99.90;;;24.03;66.90;100620.97;4988127;28;20165;-54
2021/07/08 00:13:40;;;;;;;2.45;0.60;;;24.40;99.90;;;24.18;66.27;100607.19;4987981;28;20124;-52
2021/07/08 00:16:06;;;;;;;1.27;0.73;;;24.50;99.90;;;24.36;65.36;100604.47;4987936;28;20438;-53
2021/07/08 00:18:32;;;;;;;2.78;0.60;;;24.70;99.90;;;24.35;65.41;100607.34;4987594;28;20463;-51
2021/07/08 00:20:59;;;;;;;1.15;0.50;;;24.80;99.90;;;24.35;64.94;100602.84;4988252;28;20034;-55
2021/07/08 00:23:25;;;;;;;1.67;0.50;;;24.80;99.90;;;24.38;64.66;100597.06;4986466;28;20269;-57
2021/07/08 00:25:53;;;;;;;1.13;0.47;;;24.80;99.90;;;24.26;65.22;100592.75;4988200;28;20465;-57
2021/07/08 00:28:20;;;;;;;2.35;0.77;;;24.70;99.90;;;24.28;64.92;100575.53;4988507;28;20064;-54
2021/07/08 00:30:49;;;;;;;0.98;0.60;;;24.70;99.90;;;24.39;64.64;100584.56;4985150;28;20042;-49
2021/07/08 00:33:16;;;;;;;3.03;0.80;;;24.80;99.90;;;24.36;64.36;100580.50;4986044;28;20168;-54
2021/07/08 00:35:43;;;;;;;1.80;0.70;;;24.80;99.90;;;24.36;65.41;100591.16;4987729;28;20125;-52
2021/07/08 00:38:09;;;;;;;1.95;1.27;;;24.80;99.90;;;24.33;65.52;100585.47;4988161;28;20448;-47
2021/07/08 00:40:36;;;;;;;4.68;0.85;;;24.80;99.90;;;24.16;67.03;100582.66;4987851;28;20035;-57
2021/07/08 00:43:02;;;;;;;2.08;0.63;;;24.70;99.90;;;24.10;68.08;100587.03;4987946;28;20498;-53
2021/07/08 00:45:28;;;;;;;2.70;0.60;;;24.60;99.90;;;24.04;67.71;100588.00;4969611;28;20034;-54
2021/07/08 00:47:55;;;;;;;2.42;0.60;;;24.50;99.90;;;24.07;67.01;100582.22;4986460;28;20037;-57
2021/07/08 00:50:28;;;;;;;1.30;0.50;;;24.50;99.90;;;24.05;66.57;100578.16;4984707;28;20082;-55
2021/07/08 00:52:54;;;;;;;4.32;0.90;;;24.50;99.90;;;24.06;66.55;100580.59;4988310;28;20038;-49
2021/07/08 00:55:21;;;;;;;3.78;0.77;;;24.50;99.90;;;24.04;66.33;100577.34;4986028;28;20042;-55
2021/07/08 00:57:53;;;;;;;4.43;0.50;;;24.50;99.90;;;24.08;65.60;100575.84;4988013;28;20135;-56
2021/07/08 01:00:32;;;;;;;2.30;0.70;;;24.50;99.90;;;24.12;65.19;100578.84;4985063;28;20038;-51
2021/07/08 01:02:59;;;;;;;1.05;0.80;;;24.50;99.90;;;24.10;65.39;100573.75;4987105;28;20042;-53
2021/07/08 01:05:33;;;;;;;2.85;0.40;;;24.60;99.90;;;24.13;65.02;100577.78;4986373;28;20305;-52
2021/07/08 01:08:01;;;;;;;2.03;0.65;;;24.60;99.90;;;24.10;64.80;100580.94;4988296;28;20046;-51
2021/07/08 01:10:28;;;;;;;1.77;0.50;;;24.50;99.90;;;24.07;65.00;100573.41;4984939;28;20030;-53
2021/07/08 01:12:54;;;;;;;2.30;0.45;;;24.50;99.90;;;24.10;64.32;100568.41;4986155;28;20038;-56
2021/07/08 01:15:21;;;;;;;0.68;0.40;;;24.50;99.90;;;24.14;64.66;100577.56;4987941;28;20887;-52
2021/07/08 01:17:47;;;;;;;5.15;0.70;;;24.60;99.90;;;24.07;65.03;100574.22;4986277;28;20042;-52
2021/07/08 01:20:17;;;;;;;1.58;0.50;;;24.60;99.90;;;23.94;65.57;100579.75;5001450;28;20044;-46
2021/07/08 01:22:45;;;;;;;3.75;0.80;;;24.50;99.90;;;23.88;65.87;100564.72;4986269;28;20128;-53
2021/07/08 01:25:12;;;;;;;3.85;0.70;;;24.40;99.90;;;23.84;65.69;100566.22;4986934;28;20050;-59
2021/07/08 01:27:41;;;;;;;2.28;0.60;;;24.30;99.90;;;23.83;66.10;100556.59;4987303;28;20166;-56
2021/07/08 01:30:12;;;;;;;2.60;0.82;;;24.40;99.90;;;23.80;66.10;100554.41;4987015;28;20240;-57
2021/07/08 01:32:39;;;;;;;2.58;0.40;;;24.30;99.90;;;23.79;65.87;100561.56;4986916;28;20097;-54
2021/07/08 01:35:12;;;;;;;1.55;0.60;;;24.30;99.90;;;23.78;65.71;100556.47;4986377;28;20030;-54
2021/07/08 01:37:43;;;;;;;1.20;0.70;;;24.30;99.90;;;23.71;66.32;100545.13;4987623;28;20068;-53
2021/07/08 01:40:12;;;;;;;1.52;0.40;;;24.30;99.90;;;23.61;66.51;100547.56;4986696;28;20410;-52
2021/07/08 01:42:44;;;;;;;6.20;0.77;;;24.10;99.90;;;23.54;66.61;100541.53;4985861;28;20089;-52
2021/07/08 01:45:14;;;;;;;1.35;0.60;;;24.00;99.90;;;23.48;66.90;100540.56;4986990;28;20428;-55
2021/07/08 01:47:46;;;;;;;4.40;0.70;;;24.00;99.90;;;23.46;66.91;100532.81;4985909;28;20046;-50
2021/07/08 01:50:17;;;;;;;3.45;0.50;;;24.00;99.90;;;23.52;66.93;100543.56;4986902;28;20050;-51
2021/07/08 01:52:44;;;;;;;1.20;0.40;;;24.00;99.90;;;23.58;66.40;100542.69;4987520;28;20047;-52
2021/07/08 01:55:11;;;;;;;4.43;0.60;;;24.00;99.90;;;23.60;66.09;100536.09;4986868;28;20034;-59
2021/07/08 01:57:42;;;;;;;2.05;0.55;;;24.10;99.90;;;23.57;66.13;100535.75;4986585;28;20042;-52
2021/07/08 02:00:11;;;;;;;2.72;0.70;;;24.00;99.90;;;23.54;66.45;100530.88;4986843;28;20064;-53
2021/07/08 02:02:38;;;;;;;3.08;0.50;;;24.00;99.90;;;23.64;65.72;100515.97;4986862;28;20043;-52
2021/07/08 02:05:05;;;;;;;1.88;0.60;;;24.10;99.90;;;23.72;65.08;100523.63;5003676;28;20034;-50
2021/07/08 02:07:31;;;;;;;0.80;0.60;;;24.20;99.90;;;23.90;63.90;100513.94;5004834;28;20038;-56
2021/07/08 02:09:57;;;;;;;1.05;0.50;;;24.30;99.90;;;24.06;63.63;100518.56;4989985;28;20057;-55
2021/07/08 02:12:25;;;;;;;1.27;0.70;;;24.40;99.90;;;24.09;63.97;100516.25;4989976;28;20050;-52
2021/07/08 02:14:51;;;;;;;4.57;0.90;;;24.50;99.90;;;23.85;66.00;100514.63;4988535;28;20125;-54
2021/07/08 02:17:17;;;;;;;1.73;0.75;;;24.40;99.90;;;23.59;67.80;100523.03;4989427;28;20118;-59
2021/07/08 02:19:45;;;;;;;1.67;0.70;;;24.20;99.90;;;23.40;68.27;100515.09;4990793;28;20351;-50
2021/07/08 02:22:11;;;;;;;6.85;1.00;;;24.00;99.90;;;23.31;69.00;100515.63;4990100;28;20528;-53
2021/07/08 02:24:37;;;;;;;3.20;0.73;;;23.90;99.90;;;23.23;68.43;100511.44;4990662;28;20026;-50
2021/07/08 02:27:03;;;;;;;1.70;0.55;;;23.80;99.90;;;23.23;68.21;100518.63;4989851;28;20118;-49
2021/07/08 02:29:29;;;;;;;4.25;0.55;;;23.70;99.90;;;23.24;68.15;100512.25;4990501;28;20038;-52
2021/07/08 02:31:58;;;;;;;3.15;0.60;;;23.70;99.90;;;23.28;68.38;100510.78;4988570;28;20066;-55
2021/07/08 02:34:24;;;;;;;2.15;0.95;;;23.80;99.90;;;23.17;69.27;100513.16;4989915;28;20034;-56
2021/07/08 02:36:53;;;;;;;2.35;1.15;;;23.70;99.90;;;23.13;69.19;100516.53;4988028;28;20074;-52
2021/07/08 02:39:19;;;;;;;2.67;0.88;;;23.70;99.90;;;23.07;68.90;100509.44;4989609;28;20038;-49
2021/07/08 02:41:45;;;;;;;3.30;0.80;;;23.60;99.90;;;23.09;68.84;100510.84;4989918;28;20395;-54
2021/07/08 02:44:11;;;;;;;3.15;0.70;;;23.60;99.90;;;23.05;69.39;100507.03;4990252;28;20481;-52
2021/07/08 02:46:37;;;;;;;2.38;0.73;;;23.60;99.90;;;22.91;70.63;100510.88;4988340;28;20067;-57
2021/07/08 02:49:03;;;;;;;9.82;1.10;;;23.40;99.90;;;22.82;71.35;100521.00;4990450;28;20052;-54
2021/07/08 02:51:28;;;;;;;2.28;0.70;;;23.40;99.90;;;22.91;70.27;100515.38;4988801;28;20044;-51
2021/07/08 02:53:54;;;;;;;8.07;0.68;;;23.40;99.90;;;23.11;68.13;100514.09;4990289;28;20112;-53
2021/07/08 02:56:20;;;;;;;0.70;0.50;;;23.50;99.90;;;23.32;66.90;100518.06;4989617;28;20129;-53
2021/07/08 02:58:46;;;;;;;2.35;0.60;;;23.70;99.90;;;23.40;66.50;100514.28;4989608;28;20038;-51
2021/07/08 03:01:12;;;;;;;5.63;0.57;;;23.80;99.90;;;23.45;65.85;100514.41;4988266;28;20035;-55
2021/07/08 03:03:38;;;;;;;6.28;0.70;;;23.90;99.90;;;23.55;65.57;100525.34;4989842;28;20038;-54
2021/07/08 03:06:04;;;;;;;2.53;1.00;;;24.00;99.90;;;23.48;65.89;100514.78;4987866;28;20340;-57
2021/07/08 03:08:32;;;;;;;2.10;0.88;;;24.00;99.90;;;23.37;66.38;100523.53;4987687;28;20057;-53
2021/07/08 03:10:58;;;;;;;2.10;0.90;;;23.90;99.90;;;23.26;67.09;100521.63;4989693;28;20090;-52
2021/07/08 03:13:24;;;;;;;1.92;0.47;;;23.80;99.90;;;23.22;67.16;100523.13;4988794;28;20105;-54
2021/07/08 03:15:50;;;;;;;1.83;0.60;;;23.70;99.90;;;23.18;67.87;100529.91;4988819;28;20136;-50
2021/07/08 03:18:16;;;;;;;5.85;0.55;;;23.70;99.90;;;23.10;67.92;100535.56;4989671;28;20487;-52
2021/07/08 03:20:45;;;;;;;1.48;0.57;;;23.70;99.90;;;23.00;68.49;100533.44;5003887;28;20038;-53
2021/07/08 03:23:12;;;;;;;4.25;0.55;;;23.60;99.90;;;22.96;69.24;100526.16;5003198;28;20030;-51
2021/07/08 03:25:41;;;;;;;2.75;0.85;;;23.50;99.90;;;22.95;68.89;100522.69;4989088;28;20132;-50
2021/07/08 03:28:07;;;;;;;2.00;0.50;;;23.50;99.90;;;23.01;68.51;100520.97;4989690;28;20035;-53
2021/07/08 03:30:33;;;;;;;2.45;0.70;;;23.40;99.90;;;23.11;68.17;100519.41;4989410;28;20034;-54
2021/07/08 03:33:01;;;;;;;4.47;0.60;;;23.50;99.90;;;23.21;67.08;100518.84;4988566;28;20038;-51
2021/07/08 03:35:28;;;;;;;2.35;0.75;;;23.60;99.90;;;23.37;66.36;100520.88;5003007;28;20046;-56
2021/07/08 03:37:56;;;;;;;2.60;0.60;;;23.70;99.90;;;23.45;66.06;100523.22;4988440;28;20034;-54
2021/07/08 03:40:22;;;;;;;2.45;0.70;;;23.90;99.90;;;23.54;65.35;100515.75;4989478;28;20038;-50
2021/07/08 03:42:49;;;;;;;2.03;0.77;;;24.00;99.90;;;23.61;65.47;100520.97;4988513;28;20046;-53
2021/07/08 03:45:17;;;;;;;1.25;0.60;;;24.10;99.90;;;23.65;64.67;100514.94;4987058;28;20030;-54
2021/07/08 03:47:44;;;;;;;2.22;0.50;;;24.10;99.90;;;23.77;64.42;100514.94;4988630;28;20034;-58
2021/07/08 03:50:13;;;;;;;2.25;0.60;;;24.20;99.90;;;23.83;64.00;100525.50;4989461;28;20034;-56
2021/07/08 03:52:41;;;;;;;3.42;0.63;;;24.30;99.90;;;23.87;64.40;100525.03;4988591;28;20042;-50
2021/07/08 03:55:11;;;;;;;1.30;0.40;;;24.40;99.90;;;23.81;64.63;100532.06;4984896;28;20034;-52
2021/07/08 03:57:52;;;;;;;3.25;0.90;;;24.40;99.90;;;23.80;64.55;100530.47;5277252;22;20309;-56
2021/07/08 04:00:21;;;;;;;3.63;0.90;;;24.40;99.90;;;23.82;64.50;100531.03;5027810;28;20459;-47
2021/07/08 04:02:50;;;;;;;1.13;0.60;;;24.40;99.90;;;23.91;64.01;100534.97;5018253;28;20037;-57
2021/07/08 04:05:16;;;;;;;1.55;0.60;;;24.50;99.90;;;24.12;63.46;100549.56;5028271;28;20033;-53
2021/07/08 04:07:42;;;;;;;2.95;0.73;;;24.60;99.90;;;24.12;64.24;100539.72;5021156;28;20125;-57
2021/07/08 04:10:12;;;;;;;1.77;0.60;;;24.80;99.90;;;24.21;63.89;100537.53;5009093;28;20100;-58
2021/07/08 04:12:38;;;;;;;2.20;0.70;;;24.90;99.90;;;25.06;61.73;100545.72;5008531;28;20584;-52
2021/07/08 04:15:06;;;;;;;4.25;0.70;;;25.70;99.90;;;25.73;59.76;100539.72;5026044;28;20128;-52
2021/07/08 04:17:33;;;;;;;5.43;0.50;;;26.70;98.80;;;26.35;57.81;100543.09;5016836;28;20088;-55
2021/07/08 04:19:59;;;;;;;1.35;0.40;;;27.40;96.80;;;27.14;55.35;100549.94;5013387;28;20029;-55
2021/07/08 04:22:25;;;;;;;5.15;0.70;;;28.10;95.00;;;27.48;53.91;100551.31;5021833;28;20044;-50
2021/07/08 04:24:51;;;;;;;1.15;0.50;;;28.70;92.70;;;27.75;52.68;100560.19;5007854;28;20381;-53
2021/07/08 04:27:17;;;;;;;1.38;0.47;;;29.00;91.00;;;28.05;52.06;100559.56;5014114;28;20147;-55
2021/07/08 04:29:43;;;;;;;1.15;0.68;;;29.30;90.20;;;27.99;51.86;100563.28;5027887;28;20496;-55
2021/07/08 04:32:09;;;;;;;2.40;0.60;;;29.30;89.70;;;27.72;53.06;100557.19;5021533;28;20037;-57
2021/07/08 04:34:35;;;;;;;2.95;0.70;;;29.10;89.10;;;27.03;54.47;100565.06;5011303;28;20037;-54
2021/07/08 04:37:02;;;;;;;2.35;0.40;;;28.70;89.70;;;26.00;57.32;100574.56;5023617;28;20612;-54
2021/07/08 04:39:28;;;;;;;1.42;0.50;;;27.80;91.50;;;25.56;59.03;100586.91;5026184;28;20120;-49
2021/07/08 04:41:54;;;;;;;1.38;0.60;;;26.90;93.20;;;25.21;60.09;100579.88;5026428;28;20120;-56
2021/07/08 04:44:20;;;;;;;2.03;0.50;;;26.40;94.80;;;25.14;60.70;100573.88;5027512;28;20083;-55
2021/07/08 04:46:48;;;;;;;1.08;0.43;;;26.10;95.70;;;25.12;60.53;100576.78;5020169;28;20069;-51
2021/07/08 04:49:14;;;;;;;1.27;0.50;;;26.00;96.20;;;26.26;57.31;100578.44;5027148;28;20503;-51
2021/07/08 04:51:40;;;;;;;3.13;0.60;;;26.90;95.20;;;26.76;55.46;100579.16;5026507;28;20037;-52
2021/07/08 04:54:06;;;;;;;1.00;0.50;;;27.80;93.00;;;26.01;57.55;100578.88;5019680;28;20590;-52
2021/07/08 04:56:32;;;;;;;3.13;0.50;;;27.30;93.40;;;25.43;59.25;100588.03;5014202;28;20033;-50
2021/07/08 04:58:58;;;;;;;7.80;0.68;;;26.50;94.70;;;25.29;59.88;100584.03;5025722;28;20050;-55
2021/07/08 05:01:24;;;;;;;0.90;0.57;;;26.10;95.60;;;25.21;60.00;100585.22;5014597;28;20047;-55
2021/07/08 05:03:50;;;;;;;3.53;0.55;;;26.00;96.30;;;25.14;60.10;100574.69;5025969;28;20038;-53
2021/07/08 05:06:16;;;;;;;3.20;0.57;;;25.80;96.50;;;25.34;59.49;100574.25;5020489;28;20469;-53
2021/07/08 05:08:42;;;;;;;3.90;0.70;;;26.00;96.40;;;25.66;58.78;100571.09;5022467;28;20038;-57
2021/07/08 05:11:08;;;;;;;1.85;0.50;;;26.30;96.20;;;26.80;55.64;100565.31;5022326;28;20034;-50
2021/07/08 05:13:35;;;;;;;1.77;0.50;;;27.40;94.30;;;27.01;54.91;100567.16;5025413;28;20112;-52
2021/07/08 05:16:01;;;;;;;6.50;1.23;;;28.30;92.10;;;26.94;55.25;100571.91;5027112;28;20041;-58
2021/07/08 05:18:27;;;;;;;0.90;0.68;;;28.20;91.80;;;27.00;54.90;100585.06;5021147;28;20025;-57
2021/07/08 05:20:53;;;;;;;1.33;0.73;;;28.30;91.60;;;26.97;55.21;100580.22;5018559;28;20034;-55
2021/07/08 05:23:24;;;;;;;2.55;0.45;;;28.20;91.40;;;26.62;56.35;100583.25;5012920;28;20404;-54
2021/07/08 05:25:56;;;;;;;1.52;0.60;;;27.90;91.90;;;27.14;54.88;100577.47;5042247;28;20436;-56
2021/07/08 05:28:22;;;;;;;1.75;0.40;;;28.10;91.70;;;28.06;52.61;100579.13;5008745;28;20042;-52
2021/07/08 05:30:50;;;;;;;1.42;0.40;;;29.30;89.90;;;27.99;52.05;100584.72;5011130;28;20057;-49
2021/07/08 05:33:18;;;;;;;2.50;0.50;;;29.50;87.60;;;27.84;52.61;100576.56;5026977;28;20068;-50
2021/07/08 05:35:44;;;;;;;2.42;0.60;;;29.30;87.50;;;27.10;54.79;100582.53;5025934;28;20393;-57
2021/07/08 05:38:10;;;;;;;4.45;0.60;;;28.50;89.60;;;28.14;52.08;100580.53;5010725;28;20038;-56
2021/07/08 05:40:36;;;;;;;1.17;0.52;;;29.20;87.50;;;28.78;50.06;100594.59;5016895;28;20033;-56
2021/07/08 05:43:06;;;;;;;1.90;0.80;;;30.50;82.40;;;28.90;50.26;100589.00;5030711;28;20040;-55
2021/07/08 05:45:33;;;;;;;6.97;0.50;;;30.50;81.90;;;30.22;47.25;100587.31;5030292;28;20041;-46
2021/07/08 05:47:59;;;;;;;5.18;0.50;;;31.80;77.70;;;30.20;47.31;100594.03;5011815;28;20064;-57
2021/07/08 05:50:25;;;;;;;3.45;0.63;;;32.50;74.10;;;28.93;50.36;100594.66;5021939;28;20044;-59
2021/07/08 05:52:52;;;;;;;2.70;0.60;;;31.10;76.30;;;28.08;51.95;100591.22;5030409;28;20115;-57
2021/07/08 05:55:18;;;;;;;5.95;0.50;;;29.80;80.20;;;27.67;53.21;100597.31;5024238;28;20080;-55
2021/07/08 05:57:47;;;;;;;5.05;0.63;;;29.00;83.50;;;27.67;53.05;100589.28;5010478;28;20065;-58
2021/07/08 06:00:18;;;;;;;1.23;0.50;;;28.70;84.80;;;27.65;52.59;100591.41;5010722;28;20030;-53
2021/07/08 06:02:47;;;;;;;1.40;0.60;;;28.70;85.10;;;28.08;52.17;100599.25;5025904;28;20042;-53
2021/07/08 06:05:13;;;;;;;3.67;0.40;;;29.10;85.80;;;29.76;48.17;100608.03;5013324;28;20079;-56
2021/07/08 06:07:39;;;;;;;3.00;0.50;;;30.80;79.50;;;30.73;45.81;100591.75;5030353;28;20057;-57
2021/07/08 06:10:08;;;;;;;3.90;0.43;;;32.70;73.20;;;31.60;43.09;100604.47;5014427;28;20149;-57
2021/07/08 06:12:34;;;;;;;1.45;0.50;;;33.80;69.00;;;31.41;43.95;100608.13;5010779;28;20025;-55
2021/07/08 06:15:01;;;;;;;1.63;0.50;;;33.80;67.10;;;30.98;45.42;100602.41;5027387;28;20033;-58
2021/07/08 06:17:27;;;;;;;1.60;0.50;;;33.70;66.40;;;30.01;46.83;100612.59;5019762;28;20037;-55
2021/07/08 06:19:53;;;;;;;2.78;0.70;;;32.60;68.30;;;29.97;47.57;100606.13;5018930;28;20128;-59
2021/07/08 06:22:19;;;;;;;3.60;0.40;;;31.80;71.00;;;31.71;44.07;100602.53;5017209;28;20125;-59
2021/07/08 06:24:45;;;;;;;3.50;0.40;;;33.30;67.70;;;32.45;42.07;100604.03;5024491;28;20275;-55
2021/07/08 06:27:14;;;;;;;1.10;0.43;;;34.30;65.00;;;31.94;42.75;100614.47;5029450;28;20249;-56
2021/07/08 06:29:40;;;;;;;3.33;0.57;;;34.40;63.40;;;30.83;45.81;100605.16;5033539;28;20045;-57
2021/07/08 06:32:09;;;;;;;4.32;0.82;;;33.20;65.30;;;30.07;47.25;100608.84;5027178;28;20515;-59
2021/07/08 06:34:35;;;;;;;1.83;0.38;;;32.10;68.30;;;30.57;46.52;100609.84;5025137;28;20103;-61
2021/07/08 06:37:01;;;;;;;4.13;0.52;;;32.20;68.40;;;31.98;43.10;100600.16;5023146;28;20045;-54
2021/07/08 06:39:27;;;;;;;1.23;0.63;;;33.80;64.70;;;31.92;43.06;100606.66;5029829;28;20540;-52
2021/07/08 06:41:56;;;;;;;3.85;0.30;;;34.40;62.10;;;31.56;43.46;100598.06;5028941;28;20120;-58
2021/07/08 06:44:21;;;;;;;0.98;0.50;;;34.20;62.70;;;31.82;42.85;100595.16;5010997;28;20033;-52
2021/07/08 06:46:51;;;;;;;2.47;0.40;;;34.30;61.60;;;32.50;41.76;100595.06;5014277;28;20033;-58
2021/07/08 06:49:17;;;;;;;2.88;0.40;;;35.00;61.10;;;33.41;39.78;100591.22;5017489;28;20034;-59
2021/07/08 06:51:43;;;;;;;2.05;0.45;;;36.30;57.50;;;33.52;39.75;100599.97;5016512;28;20040;-58
2021/07/08 06:54:09;;;;;;;1.92;0.40;;;36.70;56.40;;;33.91;39.07;100595.00;5013158;28;20045;-53
2021/07/08 06:56:35;;;;;;;4.28;0.60;;;37.00;55.90;;;34.06;38.51;100599.31;5010620;28;20073;-60
2021/07/08 06:59:00;;;;;;;4.00;0.65;;;37.20;55.10;;;33.53;39.17;100588.06;5014494;28;20050;-58
2021/07/08 07:01:29;;;;;;;4.57;0.63;;;36.90;55.20;;;33.83;38.35;100587.56;5027886;28;20477;-52
2021/07/08 07:03:55;;;;;;;1.88;0.60;;;36.80;55.10;;;33.23;39.60;100589.28;5028259;28;20396;-55
2021/07/08 07:06:21;;;;;;;2.80;0.40;;;36.60;54.70;;;33.53;38.97;100586.16;5013769;28;20036;-50
2021/07/08 07:08:52;;;;;;;5.25;0.57;;;36.50;54.60;;;33.29;39.30;100591.66;5012251;28;20297;-49
2021/07/08 07:11:18;;;;;;;1.30;0.40;;;36.30;54.70;;;33.81;38.69;100588.97;5021328;28;20118;-58
2021/07/08 07:13:44;;;;;;;3.80;0.50;;;36.50;54.60;;;33.88;37.92;100587.50;5018030;28;20111;-50
2021/07/08 07:16:10;;;;;;;2.35;0.40;;;36.50;54.30;;;32.58;40.60;100576.38;5015616;28;20037;-55
2021/07/08 07:18:40;;;;;;;1.00;0.32;;;35.50;56.20;;;32.04;41.58;100581.25;5017827;28;20517;-59
2021/07/08 07:21:13;;;;;;;5.35;0.70;;;34.00;59.00;;;32.02;42.81;100578.03;5044254;28;20127;-54
2021/07/08 07:23:42;;;;;;;2.97;0.60;;;33.00;62.20;;;31.68;43.43;100587.72;5023178;28;20461;-52
2021/07/08 07:26:09;;;;;;;6.93;0.57;;;32.60;63.90;;;31.24;44.18;100586.94;5015777;28;20037;-60
2021/07/08 07:28:36;;;;;;;2.63;0.50;;;32.10;65.10;;;31.06;45.16;100580.31;5020018;28;20181;-56
2021/07/08 07:31:03;;;;;;;5.80;0.68;;;31.80;66.30;;;31.33;44.26;100580.69;5015330;28;20107;-59
2021/07/08 07:33:30;;;;;;;4.78;0.70;;;31.70;66.30;;;31.69;43.63;100569.69;5009426;28;20037;-56
2021/07/08 07:35:56;;;;;;;3.05;0.68;;;31.90;66.40;;;31.70;43.73;100571.28;5017939;28;20030;-50
2021/07/08 07:38:22;;;;;;;4.13;0.40;;;32.10;66.30;;;32.48;42.57;100565.69;5026982;28;20065;-54
2021/07/08 07:40:49;;;;;;;2.35;0.40;;;32.40;66.40;;;32.16;42.34;100573.56;5022902;28;20128;-55
2021/07/08 07:43:15;;;;;;;1.48;0.40;;;32.60;64.90;;;31.91;42.38;100569.22;5008618;28;20457;-56
2021/07/08 07:45:42;;;;;;;6.65;0.90;;;32.50;64.80;;;31.99;42.80;100577.50;5008558;28;20033;-53
2021/07/08 07:48:09;;;;;;;2.65;0.50;;;32.40;65.00;;;31.96;42.24;100580.78;5018608;28;20109;-50
2021/07/08 07:50:36;;;;;;;5.85;0.60;;;32.60;64.40;;;31.81;42.79;100602.44;5021314;28;20041;-54
2021/07/08 07:53:03;;;;;;;5.25;0.80;;;32.50;64.70;;;31.73;43.42;100608.44;5027537;28;20049;-54
2021/07/08 07:55:29;;;;;;;7.05;0.70;;;32.50;65.30;;;31.71;43.80;100610.59;5028406;28;20550;-57
2021/07/08 07:58:01;;;;;;;8.35;0.93;;;32.50;65.80;;;31.64;44.06;100615.50;5028239;28;20049;-59
2021/07/08 08:00:29;;;;;;;7.47;0.52;;;32.40;66.40;;;31.79;44.02;100604.63;5028430;28;20365;-51
2021/07/08 08:02:56;;;;;;;4.80;0.57;;;32.40;66.80;;;31.93;43.20;100577.84;5026245;28;20124;-60
2021/07/08 08:05:33;;;;;;;1.65;0.40;;;32.30;66.30;;;31.53;43.88;100566.28;5028298;28;20041;-59
2021/07/08 08:10:49;;;;;;;1.55;0.30;;;31.80;66.50;;;31.04;43.68;100539.44;5028282;28;20052;-57
2021/07/08 08:13:20;;;;;;;1.42;0.40;;;31.50;66.60;;;30.99;44.37;100574.44;5028466;28;20178;-59
2021/07/08 08:15:54;;;;;;;1.75;0.52;;;31.50;66.80;;;31.37;43.39;100601.69;5026193;28;20135;-56
2021/07/08 08:18:22;;;;;;;2.90;0.77;;;31.70;66.70;;;31.86;43.50;100599.72;5028211;28;20084;-55
2021/07/08 08:20:50;;;;;;;3.05;0.50;;;32.20;66.60;;;32.24;43.60;100613.41;5027934;28;20429;-56
2021/07/08 08:23:16;;;;;;;4.03;0.63;;;32.60;67.20;;;32.35;44.25;100623.00;5027690;28;20037;-56
2021/07/08 08:25:42;;;;;;;2.50;0.40;;;32.90;67.50;;;32.51;43.62;100632.53;5027884;28;20039;-58
2021/07/08 08:28:09;;;;;;;4.65;0.65;;;33.00;67.20;;;32.98;43.75;100652.53;5027545;28;20568;-53
2021/07/08 08:30:35;;;;;;;3.17;0.40;;;33.30;68.00;;;33.28;42.68;100654.84;5027945;28;20029;-56
2021/07/08 08:33:01;;;;;;;2.20;0.45;;;33.70;66.50;;;33.44;43.02;100665.44;5027686;28;20708;-53
2021/07/08 08:35:27;;;;;;;1.90;0.45;;;34.00;67.00;;;33.66;43.01;100672.94;5027833;28;20033;-57
2021/07/08 08:38:01;;;;;;;3.60;0.60;;;34.20;66.70;;;33.67;43.15;100677.25;5027739;28;20049;-59
2021/07/08 08:40:27;;;;;;;1.80;0.40;;;34.30;66.60;;;33.13;43.30;100673.91;5027453;28;20163;-55
2021/07/08 08:42:53;;;;;;;3.17;0.50;;;34.00;66.00;;;32.78;44.24;100668.94;5027592;28;20104;-53
2021/07/08 08:45:19;;;;;;;4.05;0.40;;;33.60;67.00;;;32.38;45.41;100684.44;5028044;28;20098;-60
2021/07/08 08:48:11;;;;;;;2.70;0.50;;;33.20;67.80;;;32.26;45.87;100705.56;5027514;28;20413;-54
2021/07/08 08:50:48;;;;;;;1.20;0.40;;;33.10;68.90;;;32.13;46.65;100708.91;5024569;28;20049;-55
2021/07/08 08:53:17;;;;;;;3.28;0.68;;;32.90;70.60;;;32.23;46.87;100717.72;5025657;28;20151;-56
2021/07/08 08:55:44;;;;;;;4.53;0.50;;;32.90;70.40;;;32.13;46.79;100725.06;5027654;28;20033;-54
2021/07/08 08:58:15;;;;;;;5.53;0.60;;;32.90;70.40;;;32.03;46.72;100730.53;5026917;28;20140;-58
2021/07/08 09:01:05;;;;;;;3.22;0.40;;;32.80;70.60;;;31.82;46.98;100735.25;5027495;28;20125;-57
2021/07/08 09:03:34;;;;;;;4.10;0.60;;;32.60;70.10;;;31.81;46.97;100739.84;5027631;28;20045;-55
2021/07/08 09:06:09;;;;;;;4.05;0.70;;;32.50;70.90;;;31.72;47.27;100735.31;5025980;28;20105;-56
2021/07/08 09:08:38;;;;;;;2.38;0.50;;;32.40;70.70;;;31.46;47.32;100742.69;5027241;28;20036;-54
2021/07/08 09:11:07;;;;;;;0.93;0.60;;;32.20;71.10;;;31.54;47.56;100747.50;5026967;28;20108;-56
2021/07/08 09:13:42;;;;;;;4.55;0.40;;;32.20;71.90;;;31.73;47.74;100753.88;5026870;28;20661;-52
2021/07/08 09:16:36;;;;;;;3.55;0.82;;;32.40;71.90;;;31.62;47.67;100763.09;5026749;28;20049;-52
2021/07/08 09:19:05;;;;;;;3.10;0.77;;;32.30;71.60;;;31.76;47.14;100764.09;5027334;28;20428;-55
2021/07/08 09:21:37;;;;;;;3.67;0.60;;;32.40;71.40;;;32.03;46.38;100758.28;5026994;28;20041;-51
2021/07/08 09:24:04;;;;;;;4.30;0.70;;;32.60;71.30;;;31.77;46.25;100754.13;5025596;28;20029;-53
2021/07/08 09:26:35;;;;;;;4.68;0.80;;;32.50;70.20;;;31.68;47.00;100756.59;5019546;28;20164;-51
2021/07/08 09:29:16;;;;;;;3.53;0.60;;;32.40;70.70;;;31.84;47.04;100765.41;5021794;28;20030;-56
2021/07/08 09:31:56;;;;;;;6.68;0.98;;;32.50;71.40;;;31.77;47.71;100757.63;5028829;28;20049;-58
2021/07/08 09:34:39;;;;;;;6.57;0.60;;;32.50;71.50;;;31.38;47.03;100733.31;5014156;28;20030;-58
2021/07/08 09:37:17;;;;;;;2.00;0.50;;;32.30;70.30;;;31.01;47.85;100726.44;5016351;28;20045;-58
2021/07/08 09:39:51;;;;;;;3.15;0.75;;;31.90;71.00;;;30.92;45.05;100717.31;5007704;28;20042;-58
2021/07/08 09:42:38;;;;;;;1.85;0.50;;;31.60;70.50;;;30.87;46.10;100722.69;5019781;28;20034;-61
2021/07/08 09:45:10;;;;;;;2.65;0.77;;;31.40;70.00;;;30.97;46.94;100719.19;5018922;28;20041;-55
2021/07/08 09:47:41;;;;;;;3.90;0.45;;;31.50;71.20;;;31.16;45.25;100706.78;5012293;28;20026;-55
2021/07/08 09:50:15;;;;;;;1.67;0.73;;;31.60;69.90;;;31.33;44.83;100699.13;5007374;28;20038;-60
2021/07/08 09:52:59;;;;;;;1.77;0.40;;;31.70;69.10;;;31.57;43.15;100698.50;5026719;28;20026;-63
2021/07/08 09:55:33;;;;;;;2.80;0.52;;;31.80;67.40;;;31.90;42.73;100724.69;5025268;28;20279;-56
2021/07/08 09:58:04;;;;;;;7.82;0.60;;;32.10;67.30;;;32.22;43.51;100737.69;5015097;28;20394;-59
2021/07/08 10:00:33;;;;;;;6.22;0.63;;;32.60;68.20;;;32.52;44.14;100739.31;5024151;28;20037;-58
2021/07/08 10:03:00;;;;;;;4.07;0.82;;;32.90;68.90;;;32.60;43.75;100738.72;5038555;28;20041;-58
2021/07/08 10:05:26;;;;;;;5.03;0.80;;;33.10;68.20;;;32.72;43.65;100737.50;5006759;28;20034;-59
2021/07/08 10:07:53;;;;;;;3.35;0.63;;;33.30;67.50;;;32.88;42.68;100725.50;5006881;28;20077;-56
2021/07/08 10:10:20;;;;;;;3.40;0.93;;;33.40;66.60;;;32.80;42.76;100731.50;5006825;28;20404;-58
2021/07/08 10:12:46;;;;;;;2.95;0.40;;;33.50;66.30;;;32.57;43.10;100725.78;5006788;28;20037;-55
2021/07/08 10:15:15;;;;;;;8.20;1.13;;;33.40;65.80;;;32.32;43.41;100728.69;5010825;28;20072;-55
2021/07/08 10:17:42;;;;;;;7.90;0.80;;;33.20;66.30;;;32.02;45.09;100739.72;5041570;28;20342;-63
2021/07/08 10:20:14;;;;;;;6.72;0.90;;;32.90;68.00;;;31.83;46.57;100743.06;5026910;28;20389;-58